Time;durP1;ratioP1;P1;durP2;ratioP2;P2;SDS_P1;SDS_P2;PMS_P1;PMS_P2;Temp;Humidity;BMP_temperature;BMP_pressure;BME280_temperature;BME280_humidity;BME280_pressure;Samples;Min_cycle;Max_cycle;Signal;HPM_P1;HPM_P2
2023/12/26 00:00:29;;;;;;;;;;;;;;;17.29;41.93;100607.81;5062935;28;1206;-55
2023/12/26 00:02:55;;;;;;;;;;;;;;;16.57;43.02;100616.72;5055344;28;2336;-52
2023/12/26 00:05:21;;;;;;;;;;;;;;;16.02;44.21;100610.09;5055093;28;1141;-54
2023/12/26 00:07:47;;;;;;;;;;;;;;;15.79;44.92;100611.72;5060157;28;1060;-54
2023/12/26 00:10:15;;;;;;;;;;;;;;;15.67;45.27;100621.38;5069996;28;1445;-54
2023/12/26 00:12:42;;;;;;;;;;;;;;;17.28;41.81;100620.28;5073588;28;1118;-54
2023/12/26 00:15:08;;;;;;;;;;;;;;;16.60;43.15;100621.78;5071360;28;1124;-54
2023/12/26 00:17:33;;;;;;;;;;;;;;;15.99;44.34;100626.22;5078589;28;1914;-54
2023/12/26 00:19:59;;;;;;;;;;;;;;;15.77;45.02;100633.03;5078520;28;1082;-54
2023/12/26 00:22:24;;;;;;;;;;;;;;;16.12;44.27;100635.94;5058737;28;1166;-54
2023/12/26 00:24:50;;;;;;;;;;;;;;;17.41;41.35;100636.13;5058741;28;1112;-54
2023/12/26 00:27:16;;;;;;;;;;;;;;;16.45;43.20;100646.84;5064299;28;1023;-55
2023/12/26 00:29:42;;;;;;;;;;;;;;;16.04;44.49;100649.75;5066252;28;1095;-53
2023/12/26 00:32:08;;;;;;;;;;;;;;;15.79;44.86;100656.81;5066205;28;2357;-55
2023/12/26 00:34:34;;;;;;;;;;;;;;;15.62;45.50;100658.84;5066500;28;1159;-55
2023/12/26 00:36:59;;;;;;;;;;;;;;;16.22;44.29;100663.50;5076696;28;1985;-53
2023/12/26 00:39:25;;;;;;;;;;;;;;;17.44;41.39;100670.44;5078627;28;1094;-53
2023/12/26 00:41:50;;;;;;;;;;;;;;;16.55;42.86;100670.91;5065108;28;1024;-52
2023/12/26 00:44:16;;;;;;;;;;;;;;;16.07;44.34;100672.56;5077934;28;1055;-52
2023/12/26 00:46:43;;;;;;;;;;;;;;;15.80;45.10;100687.66;5059911;28;1146;-53
2023/12/26 00:49:08;;;;;;;;;;;;;;;15.84;44.87;100690.94;5078456;28;1043;-52
2023/12/26 00:51:34;;;;;;;;;;;;;;;17.29;41.93;100687.56;5078162;28;1043;-50
2023/12/26 00:54:00;;;;;;;;;;;;;;;16.56;43.19;100677.91;5060216;28;1067;-53
2023/12/26 00:56:27;;;;;;;;;;;;;;;16.09;44.26;100694.53;5057220;28;1906;-54
2023/12/26 00:58:52;;;;;;;;;;;;;;;15.77;44.95;100695.84;5056651;28;1130;-53
2023/12/26 01:01:18;;;;;;;;;;;;;;;15.86;44.99;100694.34;5058095;28;1925;-54
2023/12/26 01:03:43;;;;;;;;;;;;;;;17.31;41.86;100689.16;5051237;28;1103;-52
2023/12/26 01:06:09;;;;;;;;;;;;;;;16.48;43.16;100697.91;5042037;28;2092;-51
2023/12/26 01:08:34;;;;;;;;;;;;;;;16.07;44.39;100704.41;5067128;28;1085;-52
2023/12/26 01:11:00;;;;;;;;;;;;;;;15.76;45.19;100702.97;5044308;28;1075;-49
2023/12/26 01:13:30;;;;;;;;;;;;;;;15.60;45.62;100711.13;5078071;28;1135;-50
2023/12/26 01:15:55;;;;;;;;;;;;;;;16.98;42.60;100710.19;5064355;28;1127;-52
2023/12/26 01:18:21;;;;;;;;;;;;;;;16.94;42.46;100724.69;5077699;28;1905;-54
2023/12/26 01:20:46;;;;;;;;;;;;;;;16.15;44.26;100723.28;5074241;28;1175;-51
2023/12/26 01:23:12;;;;;;;;;;;;;;;15.86;45.13;100718.22;5069554;28;1194;-53
2023/12/26 01:25:37;;;;;;;;;;;;;;;15.65;45.28;100716.97;5059086;28;1206;-52
2023/12/26 01:28:04;;;;;;;;;;;;;;;16.37;43.91;100719.09;5069374;28;1027;-50
2023/12/26 01:30:29;;;;;;;;;;;;;;;17.28;41.55;100716.00;5046341;28;1245;-51
2023/12/26 01:32:55;;;;;;;;;;;;;;;16.43;43.51;100741.69;5070537;28;2482;-53
2023/12/26 01:35:21;;;;;;;;;;;;;;;15.95;44.72;100735.31;5072291;28;1166;-52
2023/12/26 01:37:46;;;;;;;;;;;;;;;15.69;45.30;100736.16;5057496;28;1910;-52
2023/12/26 01:40:12;;;;;;;;;;;;;;;16.58;43.73;100742.38;5052994;28;1117;-53
2023/12/26 01:42:39;;;;;;;;;;;;;;;17.28;41.72;100729.28;5068439;28;1035;-52
2023/12/26 01:45:05;;;;;;;;;;;;;;;16.36;43.55;100731.53;5076360;28;1072;-51
2023/12/26 01:47:31;;;;;;;;;;;;;;;15.99;44.81;100727.06;5077283;28;1015;-52
2023/12/26 01:49:56;;;;;;;;;;;;;;;15.78;45.22;100724.09;5045916;28;1286;-52
2023/12/26 01:52:22;;;;;;;;;;;;;;;15.67;45.30;100725.66;5077525;28;945;-53
2023/12/26 01:54:47;;;;;;;;;;;;;;;17.18;42.20;100723.81;5054290;28;1179;-53
2023/12/26 01:57:13;;;;;;;;;;;;;;;16.68;43.08;100723.97;5060965;28;1910;-49
2023/12/26 01:59:39;;;;;;;;;;;;;;;16.05;44.37;100720.44;5054437;28;1219;-54
2023/12/26 02:02:05;;;;;;;;;;;;;;;15.76;45.11;100724.19;5056955;28;1946;-55
2023/12/26 02:04:30;;;;;;;;;;;;;;;16.21;44.22;100725.53;5069857;28;1059;-53
2023/12/26 02:06:56;;;;;;;;;;;;;;;17.42;41.50;100719.38;5056894;28;1056;-52
2023/12/26 02:09:23;;;;;;;;;;;;;;;16.50;43.46;100727.84;5069738;28;980;-52
2023/12/26 02:11:50;;;;;;;;;;;;;;;15.95;44.83;100736.13;5056861;28;1075;-55
2023/12/26 02:14:15;;;;;;;;;;;;;;;15.80;45.04;100735.41;5056706;28;1142;-53
2023/12/26 02:16:41;;;;;;;;;;;;;;;16.59;43.73;100738.75;5056808;28;1905;-53
2023/12/26 02:19:06;;;;;;;;;;;;;;;16.93;42.48;100732.75;5043587;28;1282;-55
2023/12/26 02:21:32;;;;;;;;;;;;;;;16.13;44.11;100736.66;5070532;28;1052;-53
2023/12/26 02:23:58;;;;;;;;;;;;;;;15.86;45.02;100731.50;5057126;28;1140;-53
2023/12/26 02:26:24;;;;;;;;;;;;;;;15.97;44.80;100722.75;5068136;28;1075;-55
2023/12/26 02:28:50;;;;;;;;;;;;;;;17.40;41.71;100732.78;5040819;28;1175;-54
2023/12/26 02:31:15;;;;;;;;;;;;;;;16.60;43.08;100733.34;5045630;28;2312;-52
2023/12/26 02:33:41;;;;;;;;;;;;;;;16.03;44.36;100741.78;5051213;28;1048;-53
2023/12/26 02:36:06;;;;;;;;;;;;;;;15.73;45.13;100737.63;5043383;28;1988;-52
2023/12/26 02:38:32;;;;;;;;;;;;;;;16.03;45.02;100752.41;5053326;28;1075;-53
2023/12/26 02:40:58;;;;;;;;;;;;;;;17.39;41.66;100744.41;5056171;28;1070;-52
2023/12/26 02:43:25;;;;;;;;;;;;;;;16.61;43.30;100755.44;5052137;28;1050;-52
2023/12/26 02:45:51;;;;;;;;;;;;;;;16.07;44.54;100761.00;5042537;28;1118;-53
2023/12/26 02:48:17;;;;;;;;;;;;;;;15.79;45.36;100757.59;5051793;28;1047;-56
2023/12/26 02:50:43;;;;;;;;;;;;;;;16.39;44.31;100751.69;5036463;28;1040;-55
2023/12/26 02:53:08;;;;;;;;;;;;;;;17.24;41.98;100752.59;5039951;28;1059;-53
2023/12/26 02:55:34;;;;;;;;;;;;;;;16.31;43.82;100754.03;5056305;28;1146;-55
2023/12/26 02:58:00;;;;;;;;;;;;;;;15.93;44.68;100754.00;5051966;28;1901;-54
2023/12/26 03:00:26;;;;;;;;;;;;;;;15.74;45.28;100743.81;5046353;28;1012;-51
2023/12/26 03:02:51;;;;;;;;;;;;;;;15.53;46.03;100739.88;5051606;28;2590;-53
2023/12/26 03:05:17;;;;;;;;;;;;;;;17.01;42.63;100741.88;5046418;28;1120;-54
2023/12/26 03:07:42;;;;;;;;;;;;;;;16.98;42.38;100742.06;5052087;28;1075;-49
2023/12/26 03:10:09;;;;;;;;;;;;;;;16.17;44.32;100737.31;5046171;28;1111;-51
2023/12/26 03:12:38;;;;;;;;;;;;;;;15.82;45.02;100740.59;5055124;28;1051;-51
2023/12/26 03:15:03;;;;;;;;;;;;;;;15.65;45.44;100747.94;5055993;28;1115;-53
2023/12/26 03:17:31;;;;;;;;;;;;;;;16.71;43.27;100745.84;5037601;28;1897;-52
2023/12/26 03:19:56;;;;;;;;;;;;;;;16.98;42.57;100752.69;5047308;28;1254;-52
2023/12/26 03:22:22;;;;;;;;;;;;;;;16.22;44.04;100760.84;5037477;28;1142;-52
2023/12/26 03:24:47;;;;;;;;;;;;;;;15.90;44.85;100765.66;5047515;28;1151;-53
2023/12/26 03:27:16;;;;;;;;;;;;;;;15.67;45.36;100762.81;5055531;28;1082;-53
2023/12/26 03:29:41;;;;;;;;;;;;;;;17.01;42.78;100768.44;5055798;28;1118;-53
2023/12/26 03:32:10;;;;;;;;;;;;;;;16.79;42.95;100771.84;5050501;28;1837;-51
2023/12/26 03:34:39;;;;;;;;;;;;;;;16.16;44.35;100778.06;5067746;28;934;-53
2023/12/26 03:37:04;;;;;;;;;;;;;;;15.77;45.51;100783.38;5061193;28;1961;-53
2023/12/26 03:39:30;;;;;;;;;;;;;;;15.65;45.79;100785.91;5075651;28;1005;-49
2023/12/26 03:41:56;;;;;;;;;;;;;;;17.16;42.51;100788.69;5070252;28;1170;-49
2023/12/26 03:44:22;;;;;;;;;;;;;;;16.80;42.89;100799.25;5058559;28;1308;-52
2023/12/26 03:46:47;;;;;;;;;;;;;;;16.20;44.46;100795.47;5070600;28;1175;-55
2023/12/26 03:49:13;;;;;;;;;;;;;;;15.82;45.25;100799.81;5049325;28;1166;-53
2023/12/26 03:51:38;;;;;;;;;;;;;;;15.67;45.24;100804.38;5072742;28;1120;-53
2023/12/26 03:54:04;;;;;;;;;;;;;;;16.99;42.93;100817.34;5071340;28;1024;-51
2023/12/26 03:56:30;;;;;;;;;;;;;;;16.93;42.95;100809.81;5047746;28;2228;-50
2023/12/26 03:58:56;;;;;;;;;;;;;;;16.17;44.37;100822.22;5077746;28;1106;-48
2023/12/26 04:01:22;;;;;;;;;;;;;;;15.82;45.05;100817.53;5060697;28;1717;-52
2023/12/26 04:03:49;;;;;;;;;;;;;;;15.67;45.69;100822.94;5053578;28;1131;-52
2023/12/26 04:06:14;;;;;;;;;;;;;;;17.00;42.81;100825.19;5060938;28;1151;-51
2023/12/26 04:08:40;;;;;;;;;;;;;;;16.81;42.91;100825.72;5061183;28;1210;-51
2023/12/26 04:11:05;;;;;;;;;;;;;;;16.14;44.38;100830.41;5055406;28;1304;-52
2023/12/26 04:13:31;;;;;;;;;;;;;;;15.83;45.17;100830.69;5048541;28;1162;-53
2023/12/26 04:15:57;;;;;;;;;;;;;;;15.71;45.34;100823.59;5060154;28;1171;-54
2023/12/26 04:18:23;;;;;;;;;;;;;;;17.25;42.29;100817.22;5060858;28;1979;-48
2023/12/26 04:20:49;;;;;;;;;;;;;;;16.54;43.46;100821.44;5065100;28;1141;-52
2023/12/26 04:23:14;;;;;;;;;;;;;;;16.01;44.97;100830.44;5078229;28;1108;-50
2023/12/26 04:25:40;;;;;;;;;;;;;;;15.73;45.56;100827.00;5060270;28;1337;-54
2023/12/26 04:28:06;;;;;;;;;;;;;;;15.69;45.61;100834.28;5060649;28;1122;-51
2023/12/26 04:30:31;;;;;;;;;;;;;;;17.21;42.24;100837.91;5060407;28;1135;-50
2023/12/26 04:32:57;;;;;;;;;;;;;;;16.62;43.26;100842.97;5060264;28;2546;-52
2023/12/26 04:35:23;;;;;;;;;;;;;;;16.11;44.66;100839.44;5059858;28;1338;-53
2023/12/26 04:37:48;;;;;;;;;;;;;;;15.73;45.68;100837.59;5049195;28;1922;-53
2023/12/26 04:40:14;;;;;;;;;;;;;;;15.59;45.92;100841.16;5040572;28;1127;-53
2023/12/26 04:42:40;;;;;;;;;;;;;;;16.62;44.09;100840.31;5052167;28;1241;-51
2023/12/26 04:45:06;;;;;;;;;;;;;;;17.04;42.51;100843.56;5047032;28;1112;-50
2023/12/26 04:47:32;;;;;;;;;;;;;;;16.38;44.16;100846.41;5059275;28;1106;-50
2023/12/26 04:49:59;;;;;;;;;;;;;;;15.94;44.84;100842.38;5072862;28;1070;-51
2023/12/26 04:52:24;;;;;;;;;;;;;;;15.73;45.63;100845.56;5060554;28;1233;-50
2023/12/26 04:54:50;;;;;;;;;;;;;;;17.16;42.59;100848.03;5054847;28;1131;-52
2023/12/26 04:57:15;;;;;;;;;;;;;;;16.53;43.82;100847.13;5068361;28;2003;-51
2023/12/26 04:59:41;;;;;;;;;;;;;;;15.99;44.98;100848.25;5072624;28;1145;-47
2023/12/26 05:02:06;;;;;;;;;;;;;;;15.74;45.73;100850.75;5040108;28;2406;-51
2023/12/26 05:04:33;;;;;;;;;;;;;;;16.01;45.24;100849.84;5058294;28;1340;-48
2023/12/26 05:06:59;;;;;;;;;;;;;;;17.38;42.10;100857.06;5078211;28;1039;-52
2023/12/26 05:09:25;;;;;;;;;;;;;;;16.57;43.31;100869.00;5077534;28;1035;-53
2023/12/26 05:11:51;;;;;;;;;;;;;;;16.03;44.60;100861.19;5066058;28;882;-52
2023/12/26 05:14:18;;;;;;;;;;;;;;;15.74;45.70;100863.16;5058479;28;1097;-49
2023/12/26 05:16:45;;;;;;;;;;;;;;;15.60;46.06;100856.97;5074754;28;1906;-48
2023/12/26 05:19:10;;;;;;;;;;;;;;;17.13;42.69;100872.19;5059554;28;1518;-48
2023/12/26 05:21:36;;;;;;;;;;;;;;;16.82;43.16;100869.03;5059814;28;1149;-47
2023/12/26 05:24:03;;;;;;;;;;;;;;;16.26;44.24;100869.38;5048514;28;1106;-46
2023/12/26 05:26:28;;;;;;;;;;;;;;;17.61;41.42;100855.34;5049520;28;1225;-46
2023/12/26 05:28:54;;;;;;;;;;;;;;;15.91;45.20;100865.50;5058271;28;1130;-50
2023/12/26 05:31:20;;;;;;;;;;;;;;;16.12;45.21;100864.16;5044281;28;2413;-50
2023/12/26 05:33:46;;;;;;;;;;;;;;;16.61;43.56;100859.03;5052974;28;1379;-52
2023/12/26 05:36:12;;;;;;;;;;;;;;;16.93;43.19;100866.47;5044081;28;1906;-48
2023/12/26 05:38:37;;;;;;;;;;;;;;;18.35;40.19;100858.59;5069927;28;1176;-51
2023/12/26 05:41:04;;;;;;;;;;;;;;;16.73;43.10;100862.63;5050635;28;1131;-47
2023/12/26 05:43:29;;;;;;;;;;;;;;;16.01;44.79;100863.13;5054678;28;1153;-47
2023/12/26 05:45:55;;;;;;;;;;;;;;;17.21;42.25;100864.50;5039651;28;1131;-52
2023/12/26 05:48:21;;;;;;;;;;;;;;;16.13;44.66;100858.75;5041616;28;1138;-46
2023/12/26 05:50:46;;;;;;;;;;;;;;;17.66;41.89;100860.28;5050098;28;1327;-54
2023/12/26 05:53:14;;;;;;;;;;;;;;;16.91;43.01;100864.88;5059088;28;1443;-51
2023/12/26 05:55:40;;;;;;;;;;;;;;;16.16;44.33;100870.97;5059180;28;1126;-52
2023/12/26 05:58:05;;;;;;;;;;;;;;;16.90;43.80;100864.03;5059704;28;1914;-52
2023/12/26 06:00:31;;;;;;;;;;;;;;;16.53;44.07;100871.03;5049368;28;1213;-49
2023/12/26 06:02:57;;;;;;;;;;;;;;;15.88;45.16;100863.06;5071526;28;2035;-52
2023/12/26 06:05:23;;;;;;;;;;;;;;;17.69;41.98;100869.84;5059000;28;1248;-53
2023/12/26 06:07:49;;;;;;;;;;;;;;;16.54;44.21;100871.88;5057921;28;1881;-53
2023/12/26 06:10:14;;;;;;;;;;;;;;;16.00;44.80;100877.31;5076961;28;1139;-48
2023/12/26 06:12:40;;;;;;;;;;;;;;;17.83;41.71;100882.94;5054730;28;1252;-52
2023/12/26 06:15:06;;;;;;;;;;;;;;;16.50;44.04;100884.53;5059196;28;1235;-49
2023/12/26 06:17:31;;;;;;;;;;;;;;;15.96;44.61;100883.78;5058656;28;1985;-49
2023/12/26 06:19:58;;;;;;;;;;;;;;;17.27;43.12;100883.63;5059159;28;1185;-49
2023/12/26 06:22:24;;;;;;;;;;;;;;;16.58;44.02;100891.13;5076625;28;1028;-52
2023/12/26 06:24:50;;;;;;;;;;;;;;;15.89;45.39;100887.78;5049453;28;932;-49
2023/12/26 06:27:16;;;;;;;;;;;;;;;17.60;42.27;100885.53;5058408;28;1167;-52
2023/12/26 06:29:41;;;;;;;;;;;;;;;16.30;44.39;100890.41;5076335;28;1084;-52
2023/12/26 06:32:07;;;;;;;;;;;;;;;16.14;45.48;100889.66;5047339;28;2090;-48
2023/12/26 06:34:33;;;;;;;;;;;;;;;17.23;42.78;100888.31;5051406;28;1127;-51
2023/12/26 06:36:59;;;;;;;;;;;;;;;16.24;44.54;100892.53;5055669;28;1974;-54
2023/12/26 06:39:24;;;;;;;;;;;;;;;15.89;44.59;100888.66;5076338;28;1024;-54
2023/12/26 06:41:50;;;;;;;;;;;;;;;17.07;43.19;100880.53;5044766;28;1442;-50
2023/12/26 06:44:16;;;;;;;;;;;;;;;16.70;44.65;100882.25;5076309;28;1003;-50
2023/12/26 06:46:41;;;;;;;;;;;;;;;18.49;40.38;100880.63;5076491;28;1099;-50
2023/12/26 06:49:08;;;;;;;;;;;;;;;17.18;42.81;100883.31;5051771;28;1141;-47
2023/12/26 06:51:38;;;;;;;;;;;;;;;16.52;44.07;100884.41;5057961;28;1470;-46
2023/12/26 06:54:03;;;;;;;;;;;;;;;16.14;44.19;100892.31;5058291;28;1206;-50
2023/12/26 06:56:29;;;;;;;;;;;;;;;17.78;42.10;100894.91;5076062;28;1910;-51
2023/12/26 06:58:55;;;;;;;;;;;;;;;16.47;44.36;100897.16;5058498;28;1354;-51
2023/12/26 07:01:21;;;;;;;;;;;;;;;16.01;44.62;100899.41;5039238;28;1809;-47
2023/12/26 07:03:47;;;;;;;;;;;;;;;15.91;44.61;100897.34;5050353;28;1133;-51
2023/12/26 07:06:12;;;;;;;;;;;;;;;17.83;42.15;100908.72;5075987;28;1036;-49
2023/12/26 07:08:38;;;;;;;;;;;;;;;16.58;44.06;100909.69;5058188;28;1099;-52
2023/12/26 07:11:03;;;;;;;;;;;;;;;16.09;44.58;100905.03;5075948;28;1526;-56
2023/12/26 07:13:29;;;;;;;;;;;;;;;15.88;44.90;100917.94;5061729;28;854;-48
2023/12/26 07:15:55;;;;;;;;;;;;;;;17.48;42.65;100919.22;5073069;28;1191;-52
2023/12/26 07:18:20;;;;;;;;;;;;;;;16.27;45.01;100918.84;5074773;28;1984;-53
2023/12/26 07:20:46;;;;;;;;;;;;;;;15.93;44.82;100914.97;5075598;28;1000;-49
2023/12/26 07:23:12;;;;;;;;;;;;;;;17.77;42.26;100922.50;5075224;28;1106;-49
2023/12/26 07:25:37;;;;;;;;;;;;;;;16.38;44.79;100923.41;5073809;28;834;-48
2023/12/26 07:28:03;;;;;;;;;;;;;;;17.24;43.61;100930.72;5075187;28;1090;-52
2023/12/26 07:30:29;;;;;;;;;;;;;;;17.39;42.64;100919.91;5074700;28;1031;-48
2023/12/26 07:32:55;;;;;;;;;;;;;;;16.36;44.75;100927.13;5074745;28;2193;-48
2023/12/26 07:35:20;;;;;;;;;;;;;;;16.15;44.87;100938.25;5066502;28;1111;-51
2023/12/26 07:37:46;;;;;;;;;;;;;;;17.33;43.20;100931.84;5075665;28;1993;-54
2023/12/26 07:40:12;;;;;;;;;;;;;;;16.56;44.29;100936.38;5063805;28;1079;-49
2023/12/26 07:42:37;;;;;;;;;;;;;;;18.07;41.73;100932.59;5070043;28;1198;-56
2023/12/26 07:45:04;;;;;;;;;;;;;;;17.55;41.89;100932.91;5068586;28;1426;-53
2023/12/26 07:47:29;;;;;;;;;;;;;;;15.87;46.91;100925.03;5063175;28;1167;-52
2023/12/26 07:49:55;;;;;;;;;;;;;;;18.46;40.77;100931.50;5062993;28;1250;-52
2023/12/26 07:52:20;;;;;;;;;;;;;;;15.52;46.47;100928.22;5044742;28;1188;-54
2023/12/26 07:54:46;;;;;;;;;;;;;;;16.49;45.60;100935.09;5065077;28;1202;-53
2023/12/26 07:57:12;;;;;;;;;;;;;;;18.04;41.26;100922.19;5074996;28;1972;-56
2023/12/26 07:59:37;;;;;;;;;;;;;;;16.65;44.11;100932.19;5075250;28;1222;-55
2023/12/26 08:02:03;;;;;;;;;;;;;;;16.23;44.83;100919.19;5071636;28;2092;-56
2023/12/26 08:04:28;;;;;;;;;;;;;;;16.08;44.57;100921.91;5075315;28;1151;-50
2023/12/26 08:06:54;;;;;;;;;;;;;;;17.42;42.74;100925.00;5075177;28;1058;-50
2023/12/26 08:09:20;;;;;;;;;;;;;;;16.35;44.67;100926.28;5074969;28;1027;-53
2023/12/26 08:11:45;;;;;;;;;;;;;;;16.24;45.43;100931.47;5074107;28;1159;-49
2023/12/26 08:14:13;;;;;;;;;;;;;;;17.09;43.53;100930.03;5073246;28;1336;-55
2023/12/26 08:16:38;;;;;;;;;;;;;;;16.36;44.74;100928.00;5073238;28;1906;-49
2023/12/26 08:19:04;;;;;;;;;;;;;;;16.02;45.01;100936.47;5074859;28;1190;-50
2023/12/26 08:21:30;;;;;;;;;;;;;;;16.08;45.48;100927.22;5074682;28;980;-47
2023/12/26 08:23:55;;;;;;;;;;;;;;;17.51;42.77;100931.47;5059228;28;1178;-50
2023/12/26 08:26:22;;;;;;;;;;;;;;;16.31;44.78;100931.91;5065608;28;1148;-52
2023/12/26 08:28:49;;;;;;;;;;;;;;;16.37;45.52;100934.13;5056892;28;1358;-51
2023/12/26 08:31:15;;;;;;;;;;;;;;;17.30;42.78;100937.38;5077033;28;2026;-51
2023/12/26 08:33:41;;;;;;;;;;;;;;;16.34;44.63;100935.22;5078203;28;1150;-51
2023/12/26 08:36:07;;;;;;;;;;;;;;;16.03;45.09;100937.31;5075442;28;1199;-51
2023/12/26 08:38:32;;;;;;;;;;;;;;;16.27;45.27;100937.44;5075902;28;1975;-51
2023/12/26 08:40:58;;;;;;;;;;;;;;;17.06;43.59;100934.69;5078280;28;1174;-48
2023/12/26 08:43:24;;;;;;;;;;;;;;;16.21;45.05;100939.66;5078665;28;1169;-51
2023/12/26 08:45:49;;;;;;;;;;;;;;;16.05;45.04;100938.03;5070734;28;1156;-52
2023/12/26 08:48:15;;;;;;;;;;;;;;;16.93;44.53;100946.22;5058516;28;1099;-51
2023/12/26 08:50:41;;;;;;;;;;;;;;;16.75;44.48;100941.22;5073081;28;1071;-48
2023/12/26 08:53:06;;;;;;;;;;;;;;;16.23;45.30;100941.25;5060224;28;1090;-51
2023/12/26 08:55:32;;;;;;;;;;;;;;;18.03;41.74;100940.94;5077835;28;1059;-50
2023/12/26 08:57:58;;;;;;;;;;;;;;;16.58;44.74;100945.06;5077865;28;1979;-50
2023/12/26 09:00:23;;;;;;;;;;;;;;;16.14;44.90;100928.59;5075472;28;1445;-49
2023/12/26 09:02:49;;;;;;;;;;;;;;;16.34;45.39;100939.66;5064353;28;1963;-53
2023/12/26 09:05:15;;;;;;;;;;;;;;;17.05;43.98;100940.97;5070573;28;1062;-51
2023/12/26 09:07:40;;;;;;;;;;;;;;;16.23;45.03;100932.44;5077376;28;1131;-52
2023/12/26 09:10:06;;;;;;;;;;;;;;;16.24;45.20;100928.81;5072252;28;1165;-48
2023/12/26 09:12:32;;;;;;;;;;;;;;;17.96;42.07;100927.25;5072796;28;1023;-52
2023/12/26 09:14:57;;;;;;;;;;;;;;;17.28;43.62;100926.03;5069874;28;1008;-49
2023/12/26 09:17:23;;;;;;;;;;;;;;;18.93;40.00;100923.38;5077430;28;1918;-50
2023/12/26 09:19:48;;;;;;;;;;;;;;;15.41;47.72;100916.50;5078368;28;1139;-51
2023/12/26 09:22:14;;;;;;;;;;;;;;;17.87;42.70;100924.34;5077388;28;1103;-49
2023/12/26 09:24:43;;;;;;;;;;;;;;;17.63;42.54;100917.22;5073602;28;973;-51
2023/12/26 09:27:09;;;;;;;;;;;;;;;16.20;46.60;100916.72;5076646;28;1528;-48
2023/12/26 09:29:34;;;;;;;;;;;;;;;18.70;40.91;100911.88;5078098;28;1113;-48
2023/12/26 09:32:00;;;;;;;;;;;;;;;15.43;47.86;100913.78;5073002;28;1940;-54
2023/12/26 09:34:26;;;;;;;;;;;;;;;17.72;43.19;100913.03;5077769;28;1008;-52
2023/12/26 09:36:51;;;;;;;;;;;;;;;18.32;41.04;100895.25;5075676;28;1954;-54
2023/12/26 09:39:17;;;;;;;;;;;;;;;15.89;46.88;100898.41;5077759;28;1180;-49
2023/12/26 09:41:43;;;;;;;;;;;;;;;16.22;45.53;100891.78;5077397;28;1148;-50
2023/12/26 09:44:08;;;;;;;;;;;;;;;16.20;44.86;100890.19;5077568;28;1040;-51
2023/12/26 09:46:34;;;;;;;;;;;;;;;16.12;44.77;100883.59;5077324;28;1120;-48
2023/12/26 09:49:00;;;;;;;;;;;;;;;15.90;45.18;100889.47;5071492;28;1117;-51
2023/12/26 09:51:27;;;;;;;;;;;;;;;15.96;44.51;100888.22;5071017;28;1207;-47
2023/12/26 09:53:59;;;;;;;;;;;;;;;17.77;42.79;100880.75;5046832;28;1255;-48
2023/12/26 09:56:25;;;;;;;;;;;;;;;16.43;45.33;100885.06;5064442;28;1930;-51
2023/12/26 09:58:52;;;;;;;;;;;;;;;16.21;45.33;100884.78;5075538;28;1083;-51
2023/12/26 10:01:19;;;;;;;;;;;;;;;16.05;44.91;100874.34;5056666;28;1943;-47
2023/12/26 10:03:45;;;;;;;;;;;;;;;17.26;44.14;100885.41;5073446;28;1138;-48
2023/12/26 10:06:11;;;;;;;;;;;;;;;16.52;45.13;100872.00;5076844;28;1131;-49
2023/12/26 10:08:36;;;;;;;;;;;;;;;16.23;45.60;100874.88;5059220;28;1106;-47
2023/12/26 10:11:02;;;;;;;;;;;;;;;15.94;45.42;100867.09;5069296;28;1184;-51
2023/12/26 10:13:32;;;;;;;;;;;;;;;17.31;43.61;100871.78;5068642;28;1074;-44
2023/12/26 10:15:58;;;;;;;;;;;;;;;16.35;45.69;100864.38;5055561;28;1253;-46
2023/12/26 10:18:27;;;;;;;;;;;;;;;16.06;45.32;100864.59;5065556;28;1992;-46
2023/12/26 10:20:54;;;;;;;;;;;;;;;15.85;45.20;100862.44;5063851;28;1111;-52
2023/12/26 10:23:19;;;;;;;;;;;;;;;15.71;45.15;100861.56;5068835;28;1262;-51
2023/12/26 10:25:45;;;;;;;;;;;;;;;17.50;43.66;100857.94;5067859;28;1258;-47
2023/12/26 10:28:10;;;;;;;;;;;;;;;16.37;45.36;100852.69;5072525;28;1281;-51
2023/12/26 10:30:36;;;;;;;;;;;;;;;16.95;44.89;100848.59;5058532;28;1175;-49
2023/12/26 10:33:02;;;;;;;;;;;;;;;17.52;43.13;100842.72;5074617;28;2143;-51
2023/12/26 10:35:28;;;;;;;;;;;;;;;16.43;45.24;100843.44;5070770;28;1274;-53
2023/12/26 10:37:56;;;;;;;;;;;;;;;16.13;45.37;100832.22;5058175;28;1902;-50
2023/12/26 10:40:22;;;;;;;;;;;;;;;16.34;45.94;100828.16;5075512;28;1197;-48
2023/12/26 10:42:49;;;;;;;;;;;;;;;16.89;44.43;100833.97;5066107;28;1258;-47
2023/12/26 10:45:14;;;;;;;;;;;;;;;16.22;45.56;100830.72;5076284;28;1083;-50
2023/12/26 10:47:42;;;;;;;;;;;;;;;15.98;45.53;100820.00;5075934;28;1110;-48
2023/12/26 10:50:08;;;;;;;;;;;;;;;16.06;45.85;100816.81;5075704;28;855;-50
2023/12/26 10:52:34;;;;;;;;;;;;;;;17.20;44.08;100822.91;5075852;28;1035;-50
2023/12/26 10:55:04;;;;;;;;;;;;;;;16.28;45.57;100817.00;5047919;28;1023;-49
2023/12/26 10:57:32;;;;;;;;;;;;;;;16.00;45.65;100820.75;5073884;28;1917;-49
2023/12/26 13:51:28;;;;;;;;;;;;;;;16.63;46.63;100732.28;5069395;28;957;-51
2023/12/26 13:53:53;;;;;;;;;;;;;;;16.48;46.37;100729.75;5058666;28;1117;-58
2023/12/26 13:56:19;;;;;;;;;;;;;;;15.99;46.38;100731.50;5077802;28;1072;-54
2023/12/26 13:58:45;;;;;;;;;;;;;;;15.82;46.37;100730.00;5077433;28;1992;-52
2023/12/26 14:01:10;;;;;;;;;;;;;;;17.15;45.70;100728.53;5074844;28;1975;-52
2023/12/26 14:03:35;;;;;;;;;;;;;;;16.35;46.48;100732.47;5049742;28;862;-54
2023/12/26 14:06:01;;;;;;;;;;;;;;;15.87;46.71;100728.72;5077112;28;1038;-52
2023/12/26 14:08:26;;;;;;;;;;;;;;;15.82;46.09;100735.31;5076993;28;1178;-53
2023/12/26 14:10:52;;;;;;;;;;;;;;;17.46;44.94;100723.50;5077309;28;1090;-52
2023/12/26 14:13:17;;;;;;;;;;;;;;;16.38;46.50;100728.75;5068219;28;1039;-54
2023/12/26 14:15:43;;;;;;;;;;;;;;;16.09;46.82;100729.91;5061500;28;1235;-53
2023/12/26 14:18:09;;;;;;;;;;;;;;;17.78;44.16;100727.28;5065663;28;1964;-51
2023/12/26 14:20:34;;;;;;;;;;;;;;;16.52;46.35;100730.41;5077238;28;1032;-53
2023/12/26 14:23:00;;;;;;;;;;;;;;;16.11;46.34;100729.78;5067890;28;1117;-50
2023/12/26 14:25:28;;;;;;;;;;;;;;;15.85;46.25;100735.94;5071937;28;1060;-51
2023/12/26 14:27:53;;;;;;;;;;;;;;;16.28;46.59;100734.72;5075928;28;886;-54
2023/12/26 14:30:19;;;;;;;;;;;;;;;17.23;45.10;100726.94;5075980;28;1206;-53
2023/12/26 14:33:03;;;;;;;;;;;;;;;16.27;46.47;100726.88;5075807;28;1923;-51
2023/12/26 14:35:47;;;;;;;;;;;;;;;15.98;46.11;100735.09;5074552;28;1207;-55
2023/12/26 14:38:31;;;;;;;;;;;;;;;15.78;45.70;100726.72;5075759;28;1902;-53
2023/12/26 14:41:15;;;;;;;;;;;;;;;17.71;44.71;100730.44;5075178;28;1331;-54
2023/12/26 14:43:59;;;;;;;;;;;;;;;16.36;46.92;100728.03;5076214;28;1107;-54
2023/12/26 14:46:44;;;;;;;;;;;;;;;16.01;46.22;100722.50;5075815;28;1257;-57
2023/12/26 14:49:28;;;;;;;;;;;;;;;15.79;45.86;100731.06;5074604;28;1274;-55
2023/12/26 14:52:12;;;;;;;;;;;;;;;17.48;45.45;100718.94;5073995;28;1336;-56
2023/12/26 14:54:56;;;;;;;;;;;;;;;16.20;46.61;100723.81;5075631;28;1384;-51
2023/12/26 14:57:40;;;;;;;;;;;;;;;15.89;46.77;100725.97;5075786;28;1976;-55
2023/12/26 15:00:24;;;;;;;;;;;;;;;16.24;47.31;100721.78;5074550;28;1309;-56
2023/12/26 15:02:50;;;;;;;;;;;;;;;17.14;45.58;100725.00;5074941;28;2440;-55
2023/12/26 15:05:16;;;;;;;;;;;;;;;16.23;46.94;100723.59;5076016;28;1237;-54
2023/12/26 15:07:41;;;;;;;;;;;;;;;15.96;46.61;100723.72;5075933;28;1392;-55
2023/12/26 15:10:07;;;;;;;;;;;;;;;15.81;45.82;100715.91;5075467;28;1360;-53
2023/12/26 15:12:33;;;;;;;;;;;;;;;16.82;46.87;100718.47;5075838;28;1293;-54
2023/12/26 15:14:58;;;;;;;;;;;;;;;16.71;46.31;100721.94;5074821;28;1245;-56
2023/12/26 15:17:24;;;;;;;;;;;;;;;16.08;46.92;100714.09;5075462;28;1913;-54
2023/12/26 15:19:50;;;;;;;;;;;;;;;16.50;47.19;100724.34;5075845;28;1364;-54
2023/12/26 15:22:15;;;;;;;;;;;;;;;16.64;46.66;100723.34;5075377;28;1301;-57
2023/12/26 15:24:41;;;;;;;;;;;;;;;16.12;46.70;100720.84;5075657;28;1281;-57
2023/12/26 15:27:07;;;;;;;;;;;;;;;15.93;46.42;100716.00;5075177;28;1320;-56
2023/12/26 15:29:32;;;;;;;;;;;;;;;16.88;46.77;100717.19;5075144;28;1363;-55
2023/12/26 15:31:58;;;;;;;;;;;;;;;16.22;46.99;100718.38;5075064;28;2391;-56
2023/12/26 15:34:24;;;;;;;;;;;;;;;15.87;46.73;100717.25;5072915;28;1354;-54